Terminal Aerodrome Forecast
Issued by NWS

Home | Current Version | Previous Version | Text Only | Print | Product List | Glossary On
Versions: 1 2 3 4 5 6 7 8 9 10 11 12 13 14 15 16 17
000
FTUS43 KFGF 220805 AAA
TAFDVL
TAF AMD
KDVL 220805Z 2208/2306 36007KT 5SM BR BKN003
      TEMPO 2208/2212 1SM BR
     FM221200 03009KT P6SM OVC003
     FM221600 02013KT P6SM OVC003
     FM221800 01013G21KT P6SM OVC008
     FM230300 35007KT P6SM BKN020=

USA.gov is the U.S. government's official web portal to all federal, state and local government web resources and services.